createdAt,value
2022-12-29T00:00:19.130Z,5.57
2022-12-29T00:02:49.499Z,5.56
2022-12-29T00:05:22.166Z,5.57
2022-12-29T00:07:50.453Z,5.56
2022-12-29T00:10:19.383Z,5.56
2022-12-29T00:13:05.261Z,5.56
2022-12-29T00:15:40.740Z,5.54
2022-12-29T00:18:11.334Z,5.51
2022-12-29T00:20:57.682Z,5.49
2022-12-29T00:23:43.661Z,5.49
2022-12-29T00:26:33.535Z,5.49
2022-12-29T00:29:19.114Z,5.50
2022-12-29T00:32:05.496Z,5.51
2022-12-29T00:34:52.844Z,5.51
2022-12-29T00:37:41.706Z,5.54
2022-12-29T00:40:28.225Z,5.52
2022-12-29T00:43:13.771Z,5.48
2022-12-29T00:45:43.645Z,5.52
2022-12-29T00:48:12.289Z,5.53
2022-12-29T00:50:41.192Z,5.52
2022-12-29T00:53:10.864Z,5.51
2022-12-29T00:55:40.383Z,5.49
2022-12-29T00:58:09.093Z,5.48
2022-12-29T01:00:37.758Z,5.48
2022-12-29T01:03:06.262Z,5.48
2022-12-29T01:05:39.275Z,5.45
2022-12-29T01:08:09.200Z,5.45
2022-12-29T01:10:37.894Z,5.46
2022-12-29T01:13:06.823Z,5.45
2022-12-29T01:15:35.315Z,5.46
2022-12-29T01:18:03.794Z,5.41
2022-12-29T01:20:32.948Z,5.42
2022-12-29T01:23:02.583Z,5.39
2022-12-29T01:25:32.847Z,5.46
2022-12-29T01:28:02.352Z,5.41
2022-12-29T01:30:31.160Z,5.41
2022-12-29T01:32:59.890Z,5.38
2022-12-29T01:35:28.632Z,5.38
2022-12-29T01:37:57.541Z,5.31
2022-12-29T01:40:26.448Z,5.41
2022-12-29T01:42:56.520Z,5.48
2022-12-29T01:45:25.546Z,5.42
2022-12-29T01:47:58.062Z,5.44
2022-12-29T01:50:36.230Z,5.37
2022-12-29T01:53:09.977Z,5.40
2022-12-29T01:55:44.129Z,5.43
2022-12-29T01:58:16.059Z,5.40
2022-12-29T02:00:46.110Z,5.37
2022-12-29T02:03:14.961Z,5.37
2022-12-29T02:05:48.374Z,5.31
2022-12-29T02:08:17.825Z,5.29
2022-12-29T02:10:47.590Z,5.27
2022-12-29T02:13:20.448Z,5.24
2022-12-29T02:15:59.295Z,5.29
2022-12-29T02:18:40.181Z,5.30
2022-12-29T02:21:51.142Z,5.27
2022-12-29T02:24:53.495Z,5.24
2022-12-29T02:27:36.868Z,5.20
2022-12-29T02:30:14.411Z,5.18
2022-12-29T02:32:54.704Z,5.22
2022-12-29T02:35:33.378Z,5.21
2022-12-29T02:38:16.747Z,5.26
2022-12-29T02:40:54.071Z,5.31
2022-12-29T02:43:29.460Z,5.37
2022-12-29T02:46:03.222Z,5.46
2022-12-29T02:48:40.792Z,5.48
2022-12-29T02:51:15.621Z,5.53
2022-12-29T02:54:02.128Z,5.48
2022-12-29T02:56:33.777Z,5.50
2022-12-29T02:59:05.660Z,5.47
2022-12-29T03:02:09.151Z,5.47
2022-12-29T03:04:50.639Z,5.51
2022-12-29T03:07:27.069Z,5.54
2022-12-29T03:10:06.867Z,5.56
2022-12-29T03:13:02.109Z,5.58
2022-12-29T03:15:54.331Z,5.56
2022-12-29T03:18:27.657Z,5.63
2022-12-29T03:21:05.728Z,5.58
2022-12-29T03:23:36.650Z,5.57
2022-12-29T03:26:11.202Z,5.58
2022-12-29T03:28:43.580Z,5.58
2022-12-29T03:31:14.797Z,5.68
2022-12-29T03:33:47.483Z,5.71
2022-12-29T03:36:24.080Z,5.70
2022-12-29T03:39:00.868Z,5.74
2022-12-29T03:41:34.532Z,5.68
2022-12-29T03:44:03.128Z,5.75
2022-12-29T03:46:31.763Z,5.68
2022-12-29T03:49:00.722Z,5.64
2022-12-29T03:51:32.647Z,5.58
2022-12-29T03:54:05.822Z,5.66
2022-12-29T03:56:34.471Z,5.65
2022-12-29T03:59:03.391Z,5.53
2022-12-29T04:01:33.142Z,5.56
2022-12-29T04:04:01.852Z,5.62
2022-12-29T04:06:34.105Z,5.58
2022-12-29T04:09:02.721Z,5.63
2022-12-29T04:11:33.264Z,5.64
2022-12-29T04:14:03.393Z,5.61
2022-12-29T04:16:32.199Z,5.63
2022-12-29T04:19:00.603Z,5.62
2022-12-29T04:21:29.351Z,5.64
2022-12-29T04:24:00.007Z,5.65
2022-12-29T04:26:28.895Z,5.60
2022-12-29T04:28:57.313Z,5.53
2022-12-29T04:31:26.107Z,5.58
2022-12-29T04:33:58.327Z,5.56
2022-12-29T04:36:30.059Z,5.57
2022-12-29T04:39:00.854Z,5.58
2022-12-29T04:41:30.702Z,5.57
2022-12-29T04:43:59.526Z,5.57
2022-12-29T04:46:28.065Z,5.55
2022-12-29T04:48:56.413Z,5.57
2022-12-29T04:51:25.895Z,5.57
2022-12-29T04:53:54.352Z,5.55
2022-12-29T04:56:25.111Z,5.49
2022-12-29T04:58:53.833Z,5.51
2022-12-29T05:01:22.815Z,5.51
2022-12-29T05:03:52.755Z,5.51
2022-12-29T05:06:21.358Z,5.46
2022-12-29T05:08:50.326Z,5.42
2022-12-29T05:11:18.796Z,5.47
2022-12-29T05:13:49.423Z,5.50
2022-12-29T05:16:18.407Z,5.54
2022-12-29T05:18:47.386Z,5.50
2022-12-29T05:21:15.917Z,5.45
2022-12-29T05:23:44.499Z,5.44
2022-12-29T05:26:13.057Z,5.38
2022-12-29T05:28:41.713Z,5.32
2022-12-29T05:31:12.022Z,5.29
2022-12-29T05:33:40.763Z,5.31
2022-12-29T05:36:11.250Z,5.25
2022-12-29T05:38:40.163Z,5.24
2022-12-29T05:41:08.538Z,5.19
2022-12-29T05:43:37.009Z,5.21
2022-12-29T05:46:06.135Z,5.16
2022-12-29T05:48:38.350Z,5.24
2022-12-29T05:51:09.045Z,5.17
2022-12-29T05:53:37.812Z,5.18
2022-12-29T05:56:06.516Z,5.20
2022-12-29T05:58:34.930Z,5.15
2022-12-29T06:01:03.874Z,5.17
2022-12-29T06:03:32.521Z,5.08
2022-12-29T06:06:02.625Z,5.09
2022-12-29T06:08:31.222Z,5.05
2022-12-29T06:11:00.288Z,5.12
2022-12-29T06:13:29.945Z,5.11
2022-12-29T06:15:58.923Z,5.10
2022-12-29T06:18:27.301Z,5.13
2022-12-29T06:20:55.951Z,5.17
2022-12-29T06:23:25.859Z,5.15
2022-12-29T06:25:55.249Z,5.07
2022-12-29T06:28:24.116Z,5.08
2022-12-29T06:30:52.669Z,5.02
2022-12-29T06:33:22.074Z,5.07
2022-12-29T06:35:50.741Z,5.09
2022-12-29T06:38:19.213Z,5.11
2022-12-29T06:40:49.276Z,5.06
2022-12-29T06:43:17.809Z,5.13
2022-12-29T06:45:46.584Z,5.12
2022-12-29T06:48:15.576Z,5.15
2022-12-29T06:50:43.876Z,5.13
2022-12-29T06:53:12.820Z,5.12
2022-12-29T06:55:41.721Z,5.02
2022-12-29T06:58:11.551Z,4.99
2022-12-29T07:00:40.651Z,5.04
2022-12-29T07:03:09.274Z,5.04
2022-12-29T07:05:37.846Z,5.02
2022-12-29T07:08:06.893Z,5.00
2022-12-29T07:10:36.268Z,4.95
2022-12-29T07:13:05.004Z,4.95
2022-12-29T07:15:35.188Z,4.93
2022-12-29T07:18:04.312Z,4.93
2022-12-29T07:20:32.910Z,4.90
2022-12-29T07:23:01.529Z,4.91
2022-12-29T07:25:30.686Z,4.87
2022-12-29T07:27:59.032Z,4.92
2022-12-29T07:30:27.668Z,4.89
2022-12-29T07:32:57.850Z,4.87
2022-12-29T07:35:26.898Z,4.81
2022-12-29T07:37:55.506Z,4.84
2022-12-29T07:40:24.196Z,4.81
2022-12-29T07:42:54.220Z,4.75
2022-12-29T07:45:22.735Z,4.76
2022-12-29T07:47:51.609Z,4.79
2022-12-29T07:50:21.493Z,4.79
2022-12-29T07:52:50.596Z,4.83
2022-12-29T07:55:19.477Z,4.79
2022-12-29T07:57:47.982Z,4.76
2022-12-29T08:00:17.556Z,4.76
2022-12-29T08:02:46.122Z,4.82
2022-12-29T08:05:14.729Z,4.73
2022-12-29T08:07:46.056Z,4.69
2022-12-29T08:10:15.860Z,4.72
2022-12-29T08:12:44.953Z,4.74
2022-12-29T08:15:14.900Z,4.76
2022-12-29T08:17:43.524Z,4.67
2022-12-29T08:20:16.035Z,4.69
2022-12-29T08:22:46.077Z,4.72
2022-12-29T08:25:15.067Z,4.77
2022-12-29T08:27:43.474Z,4.78
2022-12-29T08:30:13.828Z,4.80
2022-12-29T08:32:42.410Z,4.77
2022-12-29T08:35:12.054Z,4.75
2022-12-29T08:37:41.699Z,4.71
2022-12-29T08:40:12.927Z,4.69
2022-12-29T08:42:41.527Z,4.70
2022-12-29T08:45:11.408Z,4.73
2022-12-29T08:47:40.086Z,4.75
2022-12-29T08:50:10.490Z,4.71
2022-12-29T08:52:39.256Z,4.66
2022-12-29T08:55:08.434Z,4.65
2022-12-29T08:57:38.536Z,4.67
2022-12-29T09:00:08.944Z,4.63
2022-12-29T09:02:37.808Z,4.55
2022-12-29T09:05:07.698Z,4.55
2022-12-29T09:07:36.453Z,4.52
2022-12-29T09:10:05.665Z,4.59
2022-12-29T09:12:36.590Z,4.64
2022-12-29T09:15:09.043Z,4.59
2022-12-29T09:17:43.683Z,4.65
2022-12-29T09:20:14.403Z,4.61
2022-12-29T09:22:44.311Z,4.55
2022-12-29T09:25:13.845Z,4.56
2022-12-29T09:27:43.252Z,4.61
2022-12-29T09:30:19.305Z,4.64
2022-12-29T09:32:55.352Z,4.64
2022-12-29T09:35:24.092Z,4.64
2022-12-29T09:37:56.929Z,4.64
2022-12-29T09:40:31.796Z,4.63
2022-12-29T09:43:17.494Z,4.63
2022-12-29T09:45:53.365Z,4.57
2022-12-29T09:48:26.537Z,4.57
2022-12-29T09:51:00.275Z,4.59
2022-12-29T09:53:33.045Z,4.61
2022-12-29T09:56:04.886Z,4.56
2022-12-29T09:58:41.826Z,4.63
2022-12-29T10:01:27.499Z,4.82
2022-12-29T10:03:58.917Z,5.09
2022-12-29T10:06:38.269Z,5.05
2022-12-29T10:09:22.778Z,4.82
2022-12-29T10:12:06.001Z,4.68
2022-12-29T10:14:48.962Z,4.70
2022-12-29T10:17:37.022Z,4.79
2022-12-29T10:20:23.324Z,4.93
2022-12-29T10:23:25.034Z,4.95
2022-12-29T10:25:57.611Z,4.81
2022-12-29T10:28:35.986Z,4.73
2022-12-29T10:31:09.076Z,4.72
2022-12-29T10:33:44.118Z,4.77
2022-12-29T10:36:19.224Z,4.81
2022-12-29T10:38:56.410Z,4.86
2022-12-29T10:41:31.235Z,4.96
2022-12-29T10:44:03.714Z,4.94
2022-12-29T10:46:36.032Z,4.93
2022-12-29T10:49:07.188Z,4.89
2022-12-29T10:51:41.194Z,4.88
2022-12-29T10:54:17.491Z,4.87
2022-12-29T10:56:53.513Z,4.83
2022-12-29T10:59:25.321Z,4.82
2022-12-29T11:02:03.281Z,4.82
2022-12-29T11:04:46.113Z,4.82
2022-12-29T11:07:16.261Z,4.87
2022-12-29T11:09:46.623Z,5.06
2022-12-29T11:12:25.565Z,5.18
2022-12-29T11:15:16.665Z,5.13
2022-12-29T11:17:51.215Z,5.11
2022-12-29T11:20:35.276Z,5.04
2022-12-29T11:23:23.642Z,5.05
2022-12-29T11:26:16.732Z,5.07
2022-12-29T11:28:50.459Z,5.38
2022-12-29T11:31:21.841Z,5.42
2022-12-29T11:33:50.246Z,5.54
2022-12-29T11:36:25.302Z,5.66
2022-12-29T11:38:55.925Z,5.63
2022-12-29T11:41:27.267Z,5.60
2022-12-29T11:43:58.217Z,5.65
2022-12-29T11:46:29.279Z,5.77
2022-12-29T11:49:02.782Z,5.81
2022-12-29T11:51:40.992Z,5.82
2022-12-29T11:54:15.189Z,5.84
2022-12-29T11:56:46.091Z,5.89
2022-12-29T11:59:42.718Z,5.90
2022-12-29T12:02:38.780Z,5.92
2022-12-29T12:05:20.749Z,5.96
2022-12-29T12:07:55.214Z,6.02
2022-12-29T12:10:31.007Z,6.03
2022-12-29T12:13:08.639Z,6.12
2022-12-29T12:15:46.678Z,6.06
2022-12-29T12:18:24.788Z,6.20
2022-12-29T12:20:59.729Z,6.28
2022-12-29T12:23:43.765Z,6.28
2022-12-29T12:26:17.684Z,6.27
2022-12-29T12:28:55.464Z,6.33
2022-12-29T12:31:36.649Z,6.44
2022-12-29T12:34:13.123Z,6.50
2022-12-29T12:37:05.253Z,6.74
2022-12-29T12:39:46.899Z,6.80
2022-12-29T12:42:30.498Z,6.91
2022-12-29T12:45:23.547Z,7.13
2022-12-29T12:48:07.261Z,7.38
2022-12-29T12:50:51.787Z,7.28
2022-12-29T12:53:41.563Z,7.00
2022-12-29T12:56:31.354Z,6.67
2022-12-29T12:59:10.222Z,6.47
2022-12-29T13:01:49.311Z,6.42
2022-12-29T13:04:40.772Z,6.42
2022-12-29T13:07:22.437Z,6.62
2022-12-29T13:10:04.932Z,6.71
2022-12-29T13:12:45.251Z,6.80
2022-12-29T13:15:29.175Z,6.74
2022-12-29T13:18:06.114Z,6.56
2022-12-29T13:20:45.498Z,6.38
2022-12-29T13:23:24.555Z,6.24
2022-12-29T13:25:58.192Z,6.10
2022-12-29T13:28:34.314Z,5.99
2022-12-29T13:31:14.456Z,5.90
2022-12-29T13:33:52.269Z,5.86
2022-12-29T13:36:27.593Z,5.88
2022-12-29T13:39:08.181Z,5.91
2022-12-29T13:41:50.266Z,6.10
2022-12-29T13:44:25.087Z,6.24
2022-12-29T13:46:57.296Z,6.18
2022-12-29T13:49:26.601Z,6.08
2022-12-29T13:51:57.733Z,6.22
2022-12-29T13:54:40.095Z,6.17
2022-12-29T13:57:13.467Z,6.24
2022-12-29T13:59:53.544Z,6.24
2022-12-29T14:02:34.334Z,6.29
2022-12-29T14:05:07.228Z,6.15
2022-12-29T14:07:41.130Z,6.16
2022-12-29T14:10:31.672Z,6.10
2022-12-29T14:13:09.124Z,6.17
2022-12-29T14:15:43.655Z,6.14
2022-12-29T14:18:19.507Z,6.16
2022-12-29T14:20:56.527Z,6.10
2022-12-29T14:23:41.060Z,6.16
2022-12-29T14:26:38.094Z,6.18
2022-12-29T14:29:34.417Z,6.11
2022-12-29T14:32:05.005Z,6.08
2022-12-29T14:34:43.671Z,6.00
2022-12-29T14:37:28.191Z,6.00
2022-12-29T14:40:09.423Z,5.97
2022-12-29T14:42:41.605Z,6.04
2022-12-29T14:45:29.163Z,6.05
2022-12-29T14:48:00.411Z,6.25
2022-12-29T14:50:45.012Z,6.08
2022-12-29T14:53:52.434Z,5.98
2022-12-29T14:56:22.665Z,5.86
2022-12-29T14:58:55.219Z,5.88
2022-12-29T15:01:29.283Z,5.67
2022-12-29T15:04:06.025Z,5.59
2022-12-29T15:06:40.978Z,5.50
2022-12-29T15:09:22.866Z,5.47
2022-12-29T15:11:55.524Z,5.43
2022-12-29T15:14:36.313Z,5.34
2022-12-29T15:17:26.315Z,5.36
2022-12-29T15:19:57.537Z,5.37
2022-12-29T15:22:26.972Z,5.31
2022-12-29T15:24:57.349Z,5.28
2022-12-29T15:27:27.532Z,5.21
2022-12-29T15:30:02.939Z,5.14
2022-12-29T15:32:41.389Z,5.13
2022-12-29T15:35:26.879Z,5.06
2022-12-29T15:37:55.350Z,5.02
2022-12-29T15:40:26.687Z,4.98
2022-12-29T15:43:25.267Z,4.91
2022-12-29T15:45:56.432Z,4.89
2022-12-29T15:48:27.163Z,4.90
2022-12-29T15:50:57.065Z,4.83
2022-12-29T15:53:29.603Z,4.83
2022-12-29T15:56:03.656Z,4.77
2022-12-29T15:58:33.725Z,4.76
2022-12-29T16:01:04.108Z,4.69
2022-12-29T16:03:39.943Z,4.71
2022-12-29T16:06:29.277Z,4.70
2022-12-29T16:09:03.789Z,4.69
2022-12-29T16:11:36.973Z,4.73
2022-12-29T16:14:10.970Z,4.74
2022-12-29T16:16:41.845Z,4.79
2022-12-29T16:19:15.929Z,4.72
2022-12-29T16:21:47.728Z,4.73
2022-12-29T16:24:19.798Z,4.82
2022-12-29T16:26:51.147Z,4.82
2022-12-29T16:29:23.642Z,4.77
2022-12-29T16:32:01.522Z,4.77
2022-12-29T16:34:33.066Z,4.78
2022-12-29T16:37:05.084Z,4.75
2022-12-29T16:39:36.869Z,4.75
2022-12-29T16:42:36.870Z,4.76
2022-12-29T16:45:58.717Z,4.74
2022-12-29T16:48:29.997Z,4.76
2022-12-29T16:51:05.295Z,4.77
2022-12-29T16:53:38.970Z,4.73
2022-12-29T16:56:15.834Z,4.69
2022-12-29T16:58:49.504Z,4.62
2022-12-29T17:01:20.422Z,4.65
2022-12-29T17:03:53.235Z,4.72
2022-12-29T17:06:23.781Z,4.67
2022-12-29T17:08:54.237Z,4.67
2022-12-29T17:11:45.967Z,4.65
2022-12-29T17:14:37.196Z,4.67
2022-12-29T17:17:07.875Z,4.63
2022-12-29T17:19:38.921Z,4.59
2022-12-29T17:22:14.302Z,4.62
2022-12-29T17:24:44.282Z,4.51
2022-12-29T17:27:24.207Z,4.52
2022-12-29T17:29:55.526Z,4.49
2022-12-29T17:32:23.980Z,4.50
2022-12-29T17:34:52.468Z,4.52
2022-12-29T17:37:38.916Z,4.54
2022-12-29T17:40:15.377Z,4.50
2022-12-29T17:42:47.001Z,4.53
2022-12-29T17:45:18.286Z,4.49
2022-12-29T17:47:46.906Z,4.46
2022-12-29T17:50:17.468Z,4.46
2022-12-29T17:52:51.634Z,4.51
2022-12-29T17:55:24.200Z,4.61
2022-12-29T17:57:53.185Z,4.61
2022-12-29T18:00:24.430Z,4.58
2022-12-29T18:02:53.626Z,4.54
2022-12-29T18:05:25.433Z,4.61
2022-12-29T18:07:56.390Z,4.63
2022-12-29T18:10:28.356Z,4.66
2022-12-29T18:13:00.669Z,4.65
2022-12-29T18:15:31.160Z,4.68
2022-12-29T18:18:02.766Z,4.67
2022-12-29T18:20:32.021Z,4.66
2022-12-29T18:23:00.530Z,4.62
2022-12-29T18:25:41.190Z,4.72
2022-12-29T18:28:09.904Z,4.70
2022-12-29T18:30:39.582Z,4.69
2022-12-29T18:33:08.091Z,4.67
2022-12-29T18:35:41.289Z,4.71
2022-12-29T18:38:10.655Z,4.75
2022-12-29T18:40:41.004Z,4.83
2022-12-29T18:43:11.263Z,4.87
2022-12-29T18:45:40.147Z,4.86
2022-12-29T18:48:08.768Z,4.86
2022-12-29T18:50:37.369Z,4.76
2022-12-29T18:53:07.037Z,4.81
2022-12-29T18:55:36.094Z,4.79
2022-12-29T18:58:05.993Z,4.75
2022-12-29T19:00:34.587Z,4.74
2022-12-29T19:03:03.366Z,4.77
2022-12-29T19:05:37.197Z,4.88
2022-12-29T19:08:06.322Z,4.99
2022-12-29T19:10:35.242Z,5.03
2022-12-29T19:13:03.923Z,5.07
2022-12-29T19:15:35.702Z,5.01
2022-12-29T19:20:58.297Z,5.02
2022-12-29T19:23:28.838Z,5.00
2022-12-29T19:25:57.846Z,5.03
2022-12-29T19:28:28.548Z,5.02
2022-12-29T19:31:02.278Z,5.00
2022-12-29T19:33:31.037Z,4.99
2022-12-29T19:36:02.817Z,4.99
2022-12-29T19:38:31.586Z,5.00
2022-12-29T19:41:00.166Z,4.97
2022-12-29T19:43:28.814Z,5.03
2022-12-29T19:45:59.179Z,5.06
2022-12-29T19:48:27.761Z,5.04
2022-12-29T19:50:56.352Z,5.02
2022-12-29T19:53:24.941Z,5.04
2022-12-29T19:55:53.497Z,5.04
2022-12-29T19:58:22.234Z,5.09
2022-12-29T20:00:51.644Z,5.07
2022-12-29T20:03:21.888Z,5.08
2022-12-29T20:05:51.867Z,5.16
2022-12-29T20:08:20.543Z,5.15
2022-12-29T20:10:59.371Z,5.16
2022-12-29T20:13:27.993Z,5.13
2022-12-29T20:16:01.498Z,5.17
2022-12-29T20:18:32.891Z,5.20
2022-12-29T20:21:05.956Z,5.31
2022-12-29T20:23:36.794Z,5.35
2022-12-29T20:26:06.495Z,5.37
2022-12-29T20:28:35.332Z,5.38
2022-12-29T20:31:07.895Z,5.41
2022-12-29T20:33:38.510Z,5.52
2022-12-29T20:36:10.002Z,5.54
2022-12-29T20:38:39.275Z,5.60
2022-12-29T20:41:08.067Z,5.59
2022-12-29T20:43:36.596Z,5.65
2022-12-29T20:46:05.520Z,5.72
2022-12-29T20:48:35.955Z,5.83
2022-12-29T20:51:06.536Z,5.81
2022-12-29T20:53:37.582Z,5.90
2022-12-29T20:56:08.708Z,5.93
2022-12-29T20:58:59.921Z,5.96
2022-12-29T21:01:27.249Z,6.04
2022-12-29T21:03:56.202Z,6.07
2022-12-29T21:06:26.247Z,6.03
2022-12-29T21:08:55.530Z,6.00
2022-12-29T21:11:24.578Z,5.92
2022-12-29T21:13:53.212Z,5.87
2022-12-29T21:16:22.297Z,5.90
2022-12-29T21:18:52.448Z,5.88
2022-12-29T21:21:22.846Z,5.83
2022-12-29T21:23:53.673Z,5.80
2022-12-29T21:26:24.729Z,5.79
2022-12-29T21:28:53.803Z,5.79
2022-12-29T21:31:28.774Z,5.81
2022-12-29T21:33:58.958Z,5.79
2022-12-29T21:36:28.026Z,5.76
2022-12-29T21:38:59.624Z,5.75
2022-12-29T21:41:28.395Z,5.72
2022-12-29T21:44:14.322Z,5.70
2022-12-29T21:46:44.496Z,5.64
2022-12-29T21:49:13.157Z,5.57
2022-12-29T21:51:54.319Z,5.51
2022-12-29T21:54:44.987Z,5.47
2022-12-29T21:57:36.212Z,5.47
2022-12-29T22:00:24.077Z,5.46
2022-12-29T22:03:16.490Z,5.42
2022-12-29T22:06:06.368Z,5.38
2022-12-29T22:08:52.017Z,5.35
2022-12-29T22:11:39.399Z,5.30
2022-12-29T22:14:09.195Z,5.28
2022-12-29T22:16:37.965Z,5.28
2022-12-29T22:19:08.127Z,5.29
2022-12-29T22:21:36.719Z,5.26
2022-12-29T22:24:05.423Z,5.28
2022-12-29T22:26:35.559Z,5.30
2022-12-29T22:29:04.190Z,5.30
2022-12-29T22:31:34.106Z,5.38
2022-12-29T22:34:04.732Z,5.37
2022-12-29T22:36:33.771Z,5.39
2022-12-29T22:39:02.711Z,5.44
2022-12-29T22:41:31.389Z,5.51
2022-12-29T22:44:01.450Z,5.54
2022-12-29T22:46:30.021Z,5.59
2022-12-29T22:48:59.140Z,5.65
2022-12-29T22:51:27.801Z,5.77
2022-12-29T22:53:56.529Z,5.86
2022-12-29T22:56:25.391Z,6.13
2022-12-29T22:58:54.772Z,6.69
2022-12-29T23:01:25.379Z,7.17
2022-12-29T23:04:11.078Z,7.42
2022-12-29T23:06:43.668Z,7.67
2022-12-29T23:09:18.185Z,8.02
2022-12-29T23:11:47.267Z,8.18
2022-12-29T23:14:17.396Z,8.37
2022-12-29T23:16:47.870Z,8.51
2022-12-29T23:19:16.497Z,8.58
2022-12-29T23:21:45.187Z,8.71
2022-12-29T23:24:15.550Z,8.71
2022-12-29T23:26:45.830Z,8.77
2022-12-29T23:29:16.684Z,8.61
2022-12-29T23:31:47.126Z,8.51
2022-12-29T23:34:16.902Z,8.57
2022-12-29T23:36:45.568Z,8.51
2022-12-29T23:39:21.144Z,8.45
2022-12-29T23:41:49.793Z,8.50
2022-12-29T23:44:18.255Z,8.45
2022-12-29T23:46:48.059Z,8.47
2022-12-29T23:49:16.609Z,8.60
2022-12-29T23:51:45.359Z,8.64
2022-12-29T23:54:14.063Z,8.61
2022-12-29T23:56:42.595Z,8.77
2022-12-29T23:59:10.959Z,8.85
